Time;durP1;ratioP1;P1;durP2;ratioP2;P2;SDS_P1;SDS_P2;PMS_P1;PMS_P2;Temp;Humidity;BMP_temperature;BMP_pressure;BME280_temperature;BME280_humidity;BME280_pressure;Samples;Min_cycle;Max_cycle;Signal;HPM_P1;HPM_P2
2020/12/25 00:01:24;;;;;;;1.30;1.20;;;7.30;1.00;;;;;;5056744;28;20504;-96
2020/12/25 00:03:49;;;;;;;1.75;1.40;;;7.00;1.00;;;;;;5056465;28;20419;-96
2020/12/25 00:06:16;;;;;;;1.50;1.40;;;7.30;1.00;;;;;;5057187;28;20025;-96
2020/12/25 00:08:41;;;;;;;1.80;1.70;;;7.50;1.00;;;;;;5056703;28;20033;-96
2020/12/25 00:11:07;;;;;;;1.63;1.52;;;7.50;1.00;;;;;;5056999;28;20388;-96
2020/12/25 00:13:33;;;;;;;1.80;1.67;;;7.00;1.00;;;;;;5057274;28;20050;-96
2020/12/25 00:15:58;;;;;;;4.57;1.50;;;7.10;1.00;;;;;;5057227;28;20025;-96
2020/12/25 00:18:24;;;;;;;1.98;1.77;;;7.10;1.00;;;;;;5056799;28;20515;-96
2020/12/25 00:20:51;;;;;;;3.55;1.75;;;7.20;1.00;;;;;;5056776;28;20094;-96
2020/12/25 00:23:17;;;;;;;3.22;1.77;;;7.20;1.00;;;;;;5056562;28;20477;-96
2020/12/25 00:25:42;;;;;;;1.98;1.50;;;7.10;1.00;;;;;;5056797;28;20128;-96
2020/12/25 00:28:08;;;;;;;2.92;2.35;;;7.50;1.00;;;;;;5056551;28;20384;-96
2020/12/25 00:30:34;;;;;;;2.08;1.88;;;7.10;1.00;;;;;;5056596;28;20033;-96
2020/12/25 00:33:00;;;;;;;2.05;1.88;;;7.20;1.00;;;;;;5056228;28;20017;-96
2020/12/25 00:35:25;;;;;;;2.65;2.15;;;7.10;1.00;;;;;;5056850;28;20555;-96
2020/12/25 00:37:51;;;;;;;2.20;2.00;;;7.00;1.00;;;;;;5056459;28;20070;-96
2020/12/25 00:40:17;;;;;;;2.10;1.98;;;7.00;1.00;;;;;;5058857;28;20033;-96
2020/12/25 00:42:42;;;;;;;2.25;2.05;;;7.10;1.00;;;;;;5060293;28;20038;-96
2020/12/25 00:45:08;;;;;;;2.38;2.17;;;7.00;1.00;;;;;;5060315;28;20025;-96
2020/12/25 00:47:34;;;;;;;2.78;2.58;;;7.10;1.00;;;;;;5060744;28;20046;-96
2020/12/25 00:50:00;;;;;;;2.50;2.30;;;7.70;1.00;;;;;;5060527;28;20380;-96
2020/12/25 00:52:26;;;;;;;2.53;2.30;;;7.60;1.00;;;;;;5060650;28;20024;-96
2020/12/25 00:54:52;;;;;;;3.83;2.45;;;7.30;1.00;;;;;;5061006;28;20056;-96
2020/12/25 00:57:18;;;;;;;2.97;2.45;;;7.20;1.00;;;;;;5060711;28;20542;-96
2020/12/25 00:59:44;;;;;;;3.00;2.50;;;7.20;1.00;;;;;;5060468;28;20032;-96
2020/12/25 01:02:09;;;;;;;3.53;2.47;;;7.10;1.00;;;;;;5060824;28;20035;-96
2020/12/25 01:04:35;;;;;;;2.83;2.60;;;7.30;1.00;;;;;;5060258;28;20028;-96
2020/12/25 01:07:07;;;;;;;3.80;2.50;;;7.10;1.00;;;;;;5060719;28;20127;-96
2020/12/25 01:09:33;;;;;;;4.63;2.90;;;7.20;1.00;;;;;;5061191;28;20443;-96
2020/12/25 01:12:00;;;;;;;2.85;2.63;;;7.20;1.00;;;;;;5060789;28;20523;-96
2020/12/25 01:14:32;;;;;;;3.22;2.83;;;7.20;1.00;;;;;;5061044;28;20434;-96
2020/12/25 01:16:58;;;;;;;3.33;2.90;;;7.10;1.00;;;;;;5061118;28;20025;-96
2020/12/25 01:19:25;;;;;;;3.65;2.83;;;7.10;1.00;;;;;;5061012;28;20468;-96
2020/12/25 01:22:30;;;;;;;3.03;2.83;;;7.00;1.00;;;;;;5060899;28;20032;-96
2020/12/25 01:24:56;;;;;;;4.00;3.20;;;7.00;1.00;;;;;;5060797;28;20115;-96
2020/12/25 01:27:22;;;;;;;4.80;3.30;;;7.00;1.00;;;;;;5060784;28;20083;-96
2020/12/25 01:29:47;;;;;;;3.20;2.90;;;7.20;1.00;;;;;;5060526;28;20055;-96
2020/12/25 01:32:13;;;;;;;3.72;3.03;;;7.20;1.00;;;;;;5060735;28;20037;-96
2020/12/25 01:34:38;;;;;;;4.82;3.38;;;7.30;1.00;;;;;;5061051;28;20020;-96
2020/12/25 01:37:04;;;;;;;5.10;3.28;;;7.30;1.00;;;;;;5061517;28;20036;-96
2020/12/25 01:39:30;;;;;;;3.38;2.97;;;7.10;1.00;;;;;;5060733;28;20025;-96
2020/12/25 01:41:55;;;;;;;3.35;3.05;;;7.10;1.00;;;;;;5060725;28;20047;-96
2020/12/25 01:44:21;;;;;;;3.28;2.97;;;7.10;1.00;;;;;;5061030;28;20119;-96
2020/12/25 01:46:47;;;;;;;3.67;2.65;;;7.00;1.00;;;;;;5061964;28;20024;-96
2020/12/25 01:49:13;;;;;;;3.88;3.15;;;7.00;1.00;;;;;;5062237;28;20051;-96
2020/12/25 01:51:38;;;;;;;3.20;3.00;;;6.90;1.00;;;;;;5060588;28;20074;-96
2020/12/25 01:54:04;;;;;;;3.10;2.80;;;7.00;1.00;;;;;;5061696;28;20111;-96
2020/12/25 01:56:31;;;;;;;3.95;3.17;;;6.90;1.00;;;;;;5062057;28;20089;-96
2020/12/25 01:58:56;;;;;;;4.63;3.03;;;7.10;1.00;;;;;;5061162;28;20024;-96
2020/12/25 02:01:22;;;;;;;4.55;3.08;;;6.80;1.00;;;;;;5062055;28;20035;-96
2020/12/25 02:03:48;;;;;;;4.47;3.00;;;6.70;1.00;;;;;;5061769;28;20059;-96
2020/12/25 02:06:14;;;;;;;3.53;3.13;;;6.70;1.00;;;;;;5061989;28;20468;-96
2020/12/25 02:08:39;;;;;;;3.72;2.83;;;7.00;1.00;;;;;;5061589;28;20079;-96
2020/12/25 02:11:06;;;;;;;3.90;3.03;;;6.70;1.00;;;;;;5060859;28;20025;-96
2020/12/25 02:13:32;;;;;;;4.05;2.88;;;6.90;1.00;;;;;;5060919;28;20124;-96
2020/12/25 02:15:58;;;;;;;4.57;3.25;;;7.00;1.00;;;;;;5060871;28;20025;-96
2020/12/25 02:18:32;;;;;;;3.28;2.97;;;7.00;1.00;;;;;;5061252;28;20507;-96
2020/12/25 02:21:02;;;;;;;4.50;2.85;;;7.00;1.00;;;;;;5060913;28;20025;-96
2020/12/25 02:23:28;;;;;;;4.00;3.00;;;7.00;1.00;;;;;;5061037;28;20115;-96
2020/12/25 02:25:54;;;;;;;4.47;3.05;;;6.90;1.00;;;;;;5060865;28;20074;-96
2020/12/25 02:28:19;;;;;;;4.05;3.05;;;7.00;1.00;;;;;;5060940;28;20370;-96
2020/12/25 02:30:45;;;;;;;3.58;2.67;;;7.00;1.00;;;;;;5060688;28;20112;-96
2020/12/25 02:33:10;;;;;;;4.20;2.80;;;7.00;1.00;;;;;;5061666;28;20024;-96
2020/12/25 02:35:36;;;;;;;4.10;3.20;;;7.20;1.00;;;;;;5061863;28;20035;-96
2020/12/25 02:38:02;;;;;;;3.83;3.10;;;6.90;1.00;;;;;;5061707;28;20086;-96
2020/12/25 02:40:27;;;;;;;2.97;2.78;;;6.80;1.00;;;;;;5061894;28;20093;-96
2020/12/25 02:42:53;;;;;;;3.95;2.80;;;6.90;1.00;;;;;;5062038;28;20037;-96
2020/12/25 02:45:18;;;;;;;4.32;2.95;;;6.90;1.00;;;;;;5064150;28;20092;-96
2020/12/25 02:47:44;;;;;;;4.03;2.85;;;6.70;1.00;;;;;;5063071;28;20067;-96
2020/12/25 02:50:10;;;;;;;6.20;2.70;;;6.90;1.00;;;;;;5063285;28;20025;-96
2020/12/25 02:52:35;;;;;;;4.65;2.78;;;6.90;1.00;;;;;;5063113;28;20365;-96
2020/12/25 02:55:01;;;;;;;6.25;2.97;;;7.10;1.00;;;;;;5063297;28;20031;-96
2020/12/25 02:57:27;;;;;;;3.00;2.60;;;6.90;1.00;;;;;;5063189;28;20032;-96
2020/12/25 02:59:52;;;;;;;3.72;2.33;;;6.60;1.00;;;;;;5063772;28;20082;-96
2020/12/25 03:02:18;;;;;;;5.05;2.40;;;6.50;1.00;;;;;;5063336;28;20032;-96
2020/12/25 03:04:44;;;;;;;2.65;1.90;;;6.90;1.00;;;;;;5063130;28;20046;-96
2020/12/25 03:07:11;;;;;;;3.15;2.20;;;6.30;1.00;;;;;;5062940;28;20068;-96
2020/12/25 03:09:37;;;;;;;4.65;2.10;;;6.90;1.00;;;;;;5062650;28;20056;-96
2020/12/25 03:12:03;;;;;;;4.22;2.10;;;6.50;1.00;;;;;;5062883;28;20058;-96
2020/12/25 03:14:28;;;;;;;2.38;2.00;;;7.00;1.00;;;;;;5062790;28;20027;-96
2020/12/25 03:16:54;;;;;;;3.17;2.30;;;7.00;1.00;;;;;;5061429;28;20037;-96
2020/12/25 03:19:20;;;;;;;1.88;1.60;;;6.50;1.00;;;;;;5060643;28;20496;-96
2020/12/25 03:21:46;;;;;;;3.05;1.70;;;6.70;1.00;;;;;;5060340;28;20063;-96
2020/12/25 03:24:11;;;;;;;2.17;1.70;;;6.30;1.00;;;;;;5060335;28;20028;-96
2020/12/25 03:26:37;;;;;;;3.72;1.63;;;6.90;1.00;;;;;;5058878;28;20024;-96
2020/12/25 03:29:03;;;;;;;1.83;1.60;;;6.30;1.00;;;;;;5058901;28;20112;-96
2020/12/25 03:31:29;;;;;;;3.08;1.48;;;6.30;1.00;;;;;;5059298;28;20028;-96
2020/12/25 03:33:55;;;;;;;1.40;1.30;;;6.90;1.00;;;;;;5059793;28;20024;-96
2020/12/25 03:36:21;;;;;;;2.42;1.40;;;6.20;1.00;;;;;;5059667;28;20054;-96
2020/12/25 03:38:47;;;;;;;2.05;1.20;;;6.30;1.00;;;;;;5060893;28;20039;-96
2020/12/25 03:41:13;;;;;;;1.33;1.10;;;6.80;1.00;;;;;;5060805;28;20028;-96
2020/12/25 03:43:38;;;;;;;1.33;1.10;;;6.40;1.00;;;;;;5061123;28;20067;-96
2020/12/25 03:46:04;;;;;;;1.10;0.93;;;6.90;1.00;;;;;;5061786;28;20074;-96
2020/12/25 03:48:29;;;;;;;1.45;1.33;;;6.80;1.00;;;;;;5061813;28;20020;-96
2020/12/25 03:50:56;;;;;;;1.45;1.30;;;6.70;1.00;;;;;;5061735;28;20032;-96
2020/12/25 03:53:22;;;;;;;1.70;1.10;;;6.80;1.00;;;;;;5061878;28;20025;-96
2020/12/25 03:55:47;;;;;;;2.97;1.27;;;6.60;1.00;;;;;;5061803;28;20025;-96
2020/12/25 03:58:13;;;;;;;2.10;1.10;;;6.70;1.00;;;;;;5062260;28;20492;-96
2020/12/25 04:00:39;;;;;;;1.92;1.20;;;6.20;1.00;;;;;;5061947;28;20078;-96
2020/12/25 04:03:04;;;;;;;1.58;1.23;;;6.80;1.00;;;;;;5062268;28;20028;-96
2020/12/25 04:05:30;;;;;;;1.48;1.30;;;6.70;1.00;;;;;;5062475;28;20028;-96
2020/12/25 04:07:55;;;;;;;1.45;1.20;;;6.50;1.00;;;;;;5062431;28;20047;-96
2020/12/25 04:10:21;;;;;;;1.40;1.20;;;6.90;1.00;;;;;;5058271;28;20511;-96
2020/12/25 04:12:47;;;;;;;1.98;1.27;;;6.80;1.00;;;;;;5060011;28;20052;-96
2020/12/25 04:15:12;;;;;;;1.40;1.30;;;6.90;1.00;;;;;;5059745;28;20055;-96
2020/12/25 04:17:38;;;;;;;2.85;1.45;;;6.70;1.00;;;;;;5061067;28;20025;-96
2020/12/25 04:20:04;;;;;;;1.55;1.17;;;7.00;1.00;;;;;;5060794;28;20036;-96
2020/12/25 04:22:29;;;;;;;2.17;1.38;;;6.70;1.00;;;;;;5060657;28;20020;-96
2020/12/25 04:24:55;;;;;;;1.80;1.40;;;7.20;1.00;;;;;;5061286;28;20112;-96
2020/12/25 04:27:21;;;;;;;1.75;1.40;;;6.50;1.00;;;;;;5062000;28;20021;-96
2020/12/25 04:29:46;;;;;;;2.35;1.40;;;6.40;1.00;;;;;;5061657;28;20024;-96
2020/12/25 04:32:12;;;;;;;2.38;1.67;;;6.80;1.00;;;;;;5061695;28;20031;-96
2020/12/25 04:34:37;;;;;;;2.83;1.52;;;6.90;1.00;;;;;;5060777;28;20092;-96
2020/12/25 04:37:03;;;;;;;2.55;1.90;;;6.80;1.00;;;;;;5060460;28;20089;-96
2020/12/25 04:39:29;;;;;;;3.85;2.10;;;6.60;1.00;;;;;;5060393;28;20035;-96
2020/12/25 04:41:58;;;;;;;3.72;2.25;;;6.80;1.00;;;;;;5060992;28;20035;-96
2020/12/25 04:44:23;;;;;;;3.97;2.10;;;7.00;1.00;;;;;;5060551;28;20024;-96
2020/12/25 04:46:52;;;;;;;2.75;2.03;;;7.00;1.00;;;;;;5061182;28;20021;-96
2020/12/25 04:49:21;;;;;;;2.60;2.10;;;6.90;1.00;;;;;;5061218;28;20020;-96
2020/12/25 04:51:47;;;;;;;2.78;1.92;;;6.50;1.00;;;;;;5060850;28;20028;-96
2020/12/25 04:54:13;;;;;;;3.25;1.80;;;6.40;1.00;;;;;;5060382;28;20025;-96
2020/12/25 04:56:38;;;;;;;3.03;2.10;;;6.50;1.00;;;;;;5061208;28;20507;-96
2020/12/25 04:59:04;;;;;;;3.33;2.00;;;6.70;1.00;;;;;;5061501;28;20028;-96
2020/12/25 05:01:30;;;;;;;2.13;1.77;;;6.80;1.00;;;;;;5060518;28;20021;-96
2020/12/25 05:03:56;;;;;;;5.40;1.80;;;6.90;1.00;;;;;;5061135;28;20438;-96
2020/12/25 05:06:21;;;;;;;2.78;1.60;;;6.40;1.00;;;;;;5060591;28;20025;-96
2020/12/25 05:08:49;;;;;;;2.75;1.60;;;6.70;1.00;;;;;;5061639;28;20025;-96
2020/12/25 05:11:17;;;;;;;2.97;1.77;;;6.30;1.00;;;;;;5061616;28;20021;-96
2020/12/25 05:13:47;;;;;;;2.50;1.98;;;6.80;1.00;;;;;;5061478;28;20166;-96
2020/12/25 05:16:13;;;;;;;1.80;1.63;;;6.30;1.00;;;;;;5061693;28;20081;-96
2020/12/25 05:18:47;;;;;;;1.70;1.30;;;6.20;1.00;;;;;;5062025;28;20163;-96
2020/12/25 05:21:15;;;;;;;2.42;1.55;;;6.50;1.00;;;;;;5061169;28;20028;-96
2020/12/25 05:23:42;;;;;;;2.22;1.13;;;6.70;1.00;;;;;;5060629;28;20021;-96
2020/12/25 05:26:10;;;;;;;2.78;1.48;;;6.50;1.00;;;;;;5062339;28;20024;-96
2020/12/25 05:28:43;;;;;;;2.42;1.33;;;6.00;1.00;;;;;;5065150;28;20024;-96
2020/12/25 05:31:09;;;;;;;3.05;1.15;;;6.40;1.00;;;;;;5064618;28;20028;-96
2020/12/25 05:33:36;;;;;;;1.73;1.00;;;6.40;1.00;;;;;;5064733;28;20020;-96
2020/12/25 05:36:11;;;;;;;2.10;1.00;;;6.50;1.00;;;;;;5064610;28;20027;-96
2020/12/25 05:38:38;;;;;;;1.48;0.93;;;5.90;1.00;;;;;;5064680;28;20025;-96
2020/12/25 05:41:07;;;;;;;1.67;1.10;;;5.80;1.00;;;;;;5063623;28;20032;-96
2020/12/25 05:43:34;;;;;;;1.40;0.90;;;6.40;1.00;;;;;;5063040;28;20033;-96
2020/12/25 05:46:00;;;;;;;2.25;1.10;;;6.00;1.00;;;;;;5063722;28;20032;-96
2020/12/25 05:48:26;;;;;;;2.05;1.10;;;5.90;1.00;;;;;;5062716;28;20116;-96
2020/12/25 05:50:52;;;;;;;1.52;1.13;;;6.40;1.00;;;;;;5062706;28;20060;-96
2020/12/25 05:53:18;;;;;;;3.22;1.15;;;5.90;1.00;;;;;;5062618;28;20066;-96
2020/12/25 05:55:45;;;;;;;1.42;1.17;;;6.00;1.00;;;;;;5062890;28;20025;-96
2020/12/25 05:58:15;;;;;;;3.22;1.10;;;6.40;1.00;;;;;;5062315;28;20150;-96
2020/12/25 06:00:43;;;;;;;2.35;1.27;;;6.30;1.00;;;;;;5062291;28;20099;-96
2020/12/25 06:03:15;;;;;;;1.52;1.10;;;6.50;1.00;;;;;;5062392;28;20021;-96
2020/12/25 06:05:44;;;;;;;1.20;1.10;;;6.20;1.00;;;;;;5062599;28;20512;-96
2020/12/25 06:08:18;;;;;;;2.08;0.98;;;5.80;1.00;;;;;;5062897;28;20049;-96
2020/12/25 06:10:45;;;;;;;2.13;1.10;;;6.50;1.00;;;;;;5062987;28;20025;-96
2020/12/25 06:13:15;;;;;;;2.10;1.10;;;6.00;1.00;;;;;;5062916;28;20025;-96
2020/12/25 06:15:49;;;;;;;1.70;1.10;;;6.00;1.00;;;;;;5062623;28;20029;-96
2020/12/25 06:18:44;;;;;;;2.95;1.25;;;5.90;1.00;;;;;;5062276;28;20024;-96
2020/12/25 06:21:27;;;;;;;2.08;1.10;;;6.00;1.00;;;;;;5062194;28;20476;-96
2020/12/25 06:23:54;;;;;;;1.05;0.90;;;5.80;1.00;;;;;;5062458;28;20021;-96
2020/12/25 06:26:20;;;;;;;1.27;1.10;;;5.70;1.00;;;;;;5062039;28;20024;-96
2020/12/25 06:28:48;;;;;;;2.35;1.10;;;5.80;1.00;;;;;;5062861;28;20031;-96
2020/12/25 06:31:34;;;;;;;1.50;1.25;;;5.90;1.00;;;;;;5062877;28;20050;-96
2020/12/25 06:34:03;;;;;;;1.40;1.20;;;5.80;1.00;;;;;;5062877;28;20032;-96
2020/12/25 06:36:30;;;;;;;1.77;1.10;;;6.00;1.00;;;;;;5063200;28;20033;-96
2020/12/25 06:39:03;;;;;;;1.60;1.50;;;5.80;1.00;;;;;;5062223;28;20498;-96
2020/12/25 06:41:29;;;;;;;2.28;1.30;;;6.00;1.00;;;;;;5062596;28;20113;-96
2020/12/25 06:43:55;;;;;;;2.10;1.20;;;6.20;1.00;;;;;;5062609;28;20510;-96
2020/12/25 06:46:29;;;;;;;2.15;1.40;;;5.80;1.00;;;;;;5063390;28;20044;-96
2020/12/25 06:49:06;;;;;;;1.70;1.17;;;6.40;1.00;;;;;;5062199;28;20082;-96
2020/12/25 06:54:53;;;;;;;1.52;1.30;;;5.70;1.00;;;;;;5080677;28;20162;-96
2020/12/25 06:57:24;;;;;;;1.65;1.50;;;5.70;1.00;;;;;;5062457;28;20055;-96
2020/12/25 06:59:52;;;;;;;3.75;1.63;;;5.70;1.00;;;;;;5062298;28;20561;-96
2020/12/25 07:02:19;;;;;;;1.45;1.20;;;5.70;1.00;;;;;;5062346;28;20020;-96
2020/12/25 07:04:44;;;;;;;1.45;1.35;;;5.60;1.00;;;;;;5061720;28;20060;-96
2020/12/25 07:07:10;;;;;;;1.38;1.27;;;5.70;1.00;;;;;;5060508;28;20040;-96
2020/12/25 07:09:47;;;;;;;1.50;1.40;;;5.70;1.00;;;;;;5063102;28;20038;-96
2020/12/25 07:12:23;;;;;;;1.48;1.38;;;5.50;1.00;;;;;;5065549;28;20028;-96
2020/12/25 07:14:50;;;;;;;2.15;1.73;;;5.30;1.00;;;;;;5064124;28;20036;-96
2020/12/25 07:17:16;;;;;;;2.90;1.25;;;5.20;1.00;;;;;;5064190;28;20024;-96
2020/12/25 07:19:45;;;;;;;1.48;1.10;;;5.10;1.00;;;;;;5064597;28;20028;-96
2020/12/25 07:22:11;;;;;;;1.08;1.00;;;5.50;1.00;;;;;;5065311;28;20107;-96
2020/12/25 07:24:41;;;;;;;1.10;1.00;;;5.10;1.00;;;;;;5064036;28;20028;-96
2020/12/25 07:27:08;;;;;;;1.40;1.30;;;5.10;1.00;;;;;;5063022;28;20036;-96
2020/12/25 07:29:35;;;;;;;0.90;0.90;;;5.20;1.00;;;;;;5063247;28;20028;-96
2020/12/25 07:32:01;;;;;;;1.80;1.10;;;5.10;1.00;;;;;;5062085;28;20021;-96
2020/12/25 07:34:27;;;;;;;1.63;1.02;;;5.20;1.00;;;;;;5061398;28;20459;-96
2020/12/25 07:36:55;;;;;;;1.45;1.35;;;5.20;1.00;;;;;;5061202;28;20028;-96
2020/12/25 07:39:22;;;;;;;1.20;1.10;;;5.20;1.00;;;;;;5060677;28;20032;-96
2020/12/25 07:41:48;;;;;;;1.90;1.20;;;5.10;1.00;;;;;;5060800;28;20020;-96
2020/12/25 07:44:14;;;;;;;2.25;1.70;;;5.40;1.00;;;;;;5059923;28;20559;-96
2020/12/25 07:46:40;;;;;;;1.25;1.10;;;5.40;1.00;;;;;;5060716;28;20052;-96
2020/12/25 07:49:06;;;;;;;1.65;1.08;;;5.30;1.00;;;;;;5060212;28;20029;-96
2020/12/25 07:51:33;;;;;;;1.38;1.27;;;5.70;1.00;;;;;;5060400;28;20083;-96
2020/12/25 07:54:00;;;;;;;1.40;1.30;;;5.50;1.00;;;;;;5060861;28;20036;-96
2020/12/25 07:56:28;;;;;;;1.70;1.30;;;5.50;1.00;;;;;;5058617;28;20518;-96
2020/12/25 07:58:54;;;;;;;1.42;1.30;;;5.30;1.00;;;;;;5056824;28;20549;-96
2020/12/25 08:01:21;;;;;;;1.77;1.38;;;5.50;1.00;;;;;;5060039;28;20017;-96
2020/12/25 08:03:47;;;;;;;2.10;1.50;;;5.60;1.00;;;;;;5061735;28;20024;-96
2020/12/25 08:06:24;;;;;;;2.03;1.60;;;5.40;1.00;;;;;;5053597;28;20027;-96
2020/12/25 08:09:07;;;;;;;1.90;1.30;;;5.50;1.00;;;;;;5050082;28;20092;-96
2020/12/25 08:11:34;;;;;;;1.58;1.20;;;5.60;1.00;;;;;;5048506;28;20025;-94
2020/12/25 08:14:06;;;;;;;2.58;1.80;;;5.50;1.00;;;;;;5015692;28;20120;-95
2020/12/25 08:16:35;;;;;;;8.48;5.32;;;5.60;1.00;;;;;;5017347;28;20105;-94
2020/12/25 08:19:03;;;;;;;2.85;2.22;;;5.70;1.00;;;;;;5016212;28;20381;-94
2020/12/25 08:21:34;;;;;;;2.95;2.42;;;5.80;1.00;;;;;;5020809;28;20092;-96
2020/12/25 08:24:03;;;;;;;3.42;1.92;;;5.80;1.00;;;;;;5037845;28;20499;-95
2020/12/25 08:26:31;;;;;;;3.63;2.13;;;5.70;1.00;;;;;;5036151;28;20021;-96
2020/12/25 08:28:56;;;;;;;3.25;1.45;;;5.90;1.00;;;;;;5040510;28;20064;-96
2020/12/25 08:31:22;;;;;;;2.92;1.65;;;5.50;1.00;;;;;;5025819;28;20022;-96
2020/12/25 08:33:55;;;;;;;5.63;3.30;;;5.60;1.00;;;;;;5020511;28;20028;-94
2020/12/25 08:36:22;;;;;;;3.83;1.92;;;5.70;1.00;;;;;;5020232;28;20085;-96
2020/12/25 08:38:53;;;;;;;3.28;1.60;;;5.50;1.00;;;;;;5023131;28;20022;-96
2020/12/25 08:41:28;;;;;;;2.80;1.70;;;5.70;1.00;;;;;;5021788;28;20033;-96
2020/12/25 08:43:54;;;;;;;2.72;1.60;;;5.80;1.00;;;;;;5021035;28;20025;-96
2020/12/25 08:46:23;;;;;;;9.80;6.05;;;5.60;1.00;;;;;;5022680;28;20017;-96
2020/12/25 08:48:52;;;;;;;6.32;3.38;;;5.60;1.00;;;;;;5019130;28;20030;-96
2020/12/25 08:51:19;;;;;;;3.38;2.30;;;5.50;1.00;;;;;;5016188;28;20558;-95
2020/12/25 08:53:54;;;;;;;5.22;2.80;;;5.60;1.00;;;;;;5020005;28;20036;-96
2020/12/25 08:56:22;;;;;;;4.00;2.38;;;6.10;1.00;;;;;;5016441;28;20017;-96
2020/12/25 08:59:16;;;;;;;9.02;3.80;;;5.70;1.00;;;;;;5016450;28;20124;-96
2020/12/25 09:01:42;;;;;;;2.53;1.55;;;5.70;1.00;;;;;;5017548;28;20125;-96
2020/12/25 09:04:16;;;;;;;2.20;1.67;;;5.70;1.00;;;;;;5021056;28;20029;-96
2020/12/25 09:06:42;;;;;;;3.88;2.00;;;5.70;1.00;;;;;;5023953;28;20045;-96
2020/12/25 09:09:09;;;;;;;2.17;1.98;;;5.80;1.00;;;;;;5041690;28;20029;-94
2020/12/25 09:11:36;;;;;;;2.40;1.70;;;5.80;1.00;;;;;;5041785;28;20104;-96
2020/12/25 09:14:02;;;;;;;3.05;2.03;;;5.80;1.00;;;;;;5043217;28;20025;-96
2020/12/25 09:16:27;;;;;;;2.92;1.92;;;5.90;1.00;;;;;;5040120;28;20017;-95
2020/12/25 09:18:53;;;;;;;2.95;2.00;;;5.90;1.00;;;;;;5041451;28;20054;-96
2020/12/25 09:21:19;;;;;;;4.18;2.03;;;6.60;1.00;;;;;;5040927;28;20537;-96
2020/12/25 09:23:45;;;;;;;3.30;2.28;;;6.50;1.00;;;;;;5040828;28;20032;-96
2020/12/25 09:26:13;;;;;;;4.88;2.10;;;5.70;1.00;;;;;;5042006;28;20088;-96
2020/12/25 09:28:39;;;;;;;3.95;2.28;;;6.30;1.00;;;;;;5045035;28;20032;-96
2020/12/25 09:31:07;;;;;;;5.13;2.00;;;5.70;1.00;;;;;;5043712;28;20021;-96
2020/12/25 09:33:33;;;;;;;4.13;2.15;;;5.70;1.00;;;;;;5042978;28;20032;-96
2020/12/25 09:35:59;;;;;;;5.40;2.40;;;5.70;1.00;;;;;;5042744;28;20028;-96
2020/12/25 09:38:28;;;;;;;4.18;2.15;;;5.80;1.00;;;;;;5041810;28;20025;-96
2020/12/25 09:40:53;;;;;;;5.30;3.10;;;6.50;1.00;;;;;;5040345;28;20037;-95
2020/12/25 09:43:19;;;;;;;4.72;2.22;;;6.00;1.00;;;;;;5043992;28;20405;-96
2020/12/25 09:45:45;;;;;;;5.60;2.25;;;5.80;1.00;;;;;;5043100;28;20032;-96
2020/12/25 09:48:12;;;;;;;5.60;2.05;;;5.70;1.00;;;;;;5043579;28;20025;-96
2020/12/25 09:50:38;;;;;;;3.42;2.00;;;5.80;1.00;;;;;;5043377;28;20056;-95
2020/12/25 09:53:04;;;;;;;5.82;2.00;;;6.40;1.00;;;;;;5049413;28;20473;-96
2020/12/25 09:55:36;;;;;;;5.53;2.22;;;6.10;1.00;;;;;;5049161;28;20032;-96
2020/12/25 09:58:02;;;;;;;3.67;1.48;;;6.20;1.00;;;;;;5065050;28;20033;-96
2020/12/25 10:00:28;;;;;;;6.22;1.90;;;5.90;1.00;;;;;;5049999;28;20027;-96
2020/12/25 10:02:54;;;;;;;5.55;1.88;;;5.80;1.00;;;;;;5051228;28;20128;-94
2020/12/25 10:05:19;;;;;;;7.07;2.03;;;5.70;1.00;;;;;;5048564;28;20492;-95
2020/12/25 10:07:46;;;;;;;3.67;1.92;;;5.80;1.00;;;;;;5066405;28;20058;-96
2020/12/25 10:10:14;;;;;;;4.15;1.65;;;5.80;1.00;;;;;;5070012;28;20085;-96
2020/12/25 10:12:47;;;;;;;3.65;1.85;;;5.70;1.00;;;;;;5067897;28;20012;-96
2020/12/25 10:15:18;;;;;;;4.22;2.20;;;5.80;1.00;;;;;;5090361;28;20120;-96
2020/12/25 10:17:44;;;;;;;3.90;2.42;;;5.70;1.00;;;;;;5066441;28;20025;-96
2020/12/25 10:20:10;;;;;;;4.30;2.28;;;5.80;1.00;;;;;;5068569;28;20028;-96
2020/12/25 10:22:38;;;;;;;3.40;1.75;;;5.90;1.00;;;;;;5067678;28;20060;-96
2020/12/25 10:25:03;;;;;;;6.07;2.28;;;5.90;1.00;;;;;;5049867;28;20059;-96
2020/12/25 10:27:33;;;;;;;5.35;2.30;;;6.10;1.00;;;;;;5066608;28;20028;-96
2020/12/25 10:30:00;;;;;;;5.07;2.83;;;6.10;1.00;;;;;;5078592;28;20081;-96
2020/12/25 10:32:26;;;;;;;4.78;2.13;;;6.40;1.00;;;;;;5074820;28;20036;-96
2020/12/25 10:34:52;;;;;;;3.58;1.75;;;6.00;1.00;;;;;;5060565;28;20086;-96
2020/12/25 10:37:17;;;;;;;5.55;2.10;;;6.40;1.00;;;;;;5068225;28;20058;-96
2020/12/25 10:39:45;;;;;;;5.15;2.35;;;6.50;1.00;;;;;;5070554;28;20033;-96
2020/12/25 10:42:15;;;;;;;12.40;2.92;;;5.90;1.00;;;;;;5069822;28;20054;-96
2020/12/25 10:45:02;;;;;;;5.45;2.63;;;5.90;1.00;;;;;;5093928;28;20508;-96
2020/12/25 10:47:38;;;;;;;7.82;3.20;;;6.10;1.00;;;;;;5091183;28;20024;-96
2020/12/25 10:53:21;;;;;;;5.38;2.35;;;6.30;1.00;;;;;;5095626;28;20066;-96
2020/12/25 10:55:47;;;;;;;6.13;3.20;;;6.80;1.00;;;;;;5047942;28;20476;-92
2020/12/25 10:58:12;;;;;;;5.45;2.40;;;6.80;1.00;;;;;;5064647;28;20040;-96
2020/12/25 11:00:38;;;;;;;3.92;2.63;;;6.50;1.00;;;;;;5066162;28;20025;-96
2020/12/25 11:03:04;;;;;;;6.78;3.20;;;6.70;1.00;;;;;;5068439;28;20024;-95
2020/12/25 11:05:29;;;;;;;4.25;2.22;;;6.70;1.00;;;;;;5060246;28;20024;-96
2020/12/25 11:07:58;;;;;;;7.55;2.85;;;6.80;1.00;;;;;;5065077;28;20048;-96
2020/12/25 11:11:11;;;;;;;3.45;2.22;;;6.20;1.00;;;;;;5093230;28;20028;-96
2020/12/25 11:13:37;;;;;;;6.25;2.60;;;6.00;1.00;;;;;;5080056;28;20017;-96
2020/12/25 11:16:10;;;;;;;4.82;2.30;;;6.70;1.00;;;;;;5067514;28;20407;-96
2020/12/25 11:18:36;;;;;;;7.25;3.28;;;6.40;1.00;;;;;;5049283;28;20094;-96
2020/12/25 11:21:17;;;;;;;6.55;3.40;;;6.70;1.00;;;;;;5068383;28;20017;-96
2020/12/25 11:23:43;;;;;;;6.45;3.13;;;6.80;1.00;;;;;;5071563;28;20056;-96
2020/12/25 11:26:09;;;;;;;7.82;4.30;;;6.70;1.00;;;;;;5063339;28;20029;-96
2020/12/25 11:28:34;;;;;;;13.90;7.78;;;6.30;1.00;;;;;;5059929;28;20025;-96
2020/12/25 11:31:01;;;;;;;8.38;4.97;;;6.20;1.00;;;;;;5058371;28;20021;-96
2020/12/25 11:33:27;;;;;;;9.95;5.13;;;6.00;1.00;;;;;;5058765;28;20054;-96
2020/12/25 11:35:53;;;;;;;6.90;3.03;;;6.60;1.00;;;;;;5059562;28;20024;-96
2020/12/25 11:38:18;;;;;;;5.97;3.92;;;6.10;1.00;;;;;;5069418;28;20425;-96
2020/12/25 11:40:44;;;;;;;4.97;2.30;;;6.10;1.00;;;;;;5062355;28;20031;-96
2020/12/25 11:43:10;;;;;;;6.28;2.80;;;6.60;1.00;;;;;;5055905;28;20480;-90
2020/12/25 11:45:36;;;;;;;5.00;3.20;;;5.90;1.00;;;;;;5056270;28;20071;-96
2020/12/25 11:48:05;;;;;;;5.22;2.40;;;6.40;1.00;;;;;;5060145;28;20024;-96
2020/12/25 11:50:30;;;;;;;6.45;3.05;;;5.80;1.00;;;;;;5050446;28;20035;-90
2020/12/25 11:52:56;;;;;;;3.92;2.92;;;5.80;1.00;;;;;;5053929;28;20410;-91
2020/12/25 11:55:21;;;;;;;4.60;2.70;;;5.80;1.00;;;;;;5035532;28;20112;-90
2020/12/25 11:57:47;;;;;;;4.68;2.75;;;6.10;1.00;;;;;;5072405;28;20107;-89
2020/12/25 12:00:13;;;;;;;23.00;12.57;;;6.30;1.00;;;;;;5050678;28;20028;-94
2020/12/25 12:02:38;;;;;;;9.57;5.50;;;6.50;1.00;;;;;;5055134;28;20393;-92
2020/12/25 12:05:04;;;;;;;9.70;4.68;;;6.80;1.00;;;;;;5038911;28;20108;-93
2020/12/25 12:07:29;;;;;;;3.67;2.60;;;6.60;1.00;;;;;;5055881;28;20048;-93
2020/12/25 12:09:55;;;;;;;8.23;5.53;;;6.70;1.00;;;;;;5050600;28;20051;-93
2020/12/25 12:12:20;;;;;;;5.88;2.65;;;6.30;1.00;;;;;;5047246;28;20473;-91
2020/12/25 12:14:46;;;;;;;12.05;6.03;;;6.50;1.00;;;;;;5048379;28;20025;-93
2020/12/25 12:17:12;;;;;;;5.18;2.75;;;6.20;1.00;;;;;;5036244;28;20060;-92
2020/12/25 12:19:37;;;;;;;8.73;3.10;;;6.50;1.00;;;;;;5069104;28;20032;-96
2020/12/25 12:22:03;;;;;;;6.03;3.53;;;5.60;1.00;;;;;;5063070;28;20086;-92
2020/12/25 12:24:28;;;;;;;4.20;3.10;;;5.60;1.00;;;;;;5072064;28;20487;-88
2020/12/25 12:26:54;;;;;;;11.00;5.90;;;5.60;1.00;;;;;;5062978;28;20052;-89
2020/12/25 12:29:20;;;;;;;3.75;2.78;;;5.60;1.00;;;;;;5066414;28;20024;-91
2020/12/25 12:31:45;;;;;;;4.88;3.35;;;5.80;1.00;;;;;;5042518;28;20025;-91
2020/12/25 12:34:11;;;;;;;5.55;2.80;;;6.10;1.00;;;;;;5049301;28;20111;-91
2020/12/25 12:36:36;;;;;;;5.22;2.45;;;6.20;1.00;;;;;;5042866;28;20025;-90
2020/12/25 12:39:02;;;;;;;8.40;5.43;;;6.20;1.00;;;;;;5059434;28;20059;-90
2020/12/25 12:41:28;;;;;;;7.80;4.57;;;6.10;1.00;;;;;;5053609;28;20063;-90
2020/12/25 12:43:54;;;;;;;3.03;2.20;;;6.10;1.00;;;;;;5045098;28;20492;-90
2020/12/25 12:46:19;;;;;;;4.95;3.05;;;6.00;1.00;;;;;;5046997;28;20025;-93
2020/12/25 12:48:45;;;;;;;4.32;2.25;;;6.20;1.00;;;;;;5041161;28;20473;-90
2020/12/25 12:51:10;;;;;;;6.90;2.95;;;6.50;1.00;;;;;;5057824;28;20028;-91
2020/12/25 12:53:36;;;;;;;3.80;2.60;;;6.20;1.00;;;;;;5053535;28;20158;-92
2020/12/25 12:56:02;;;;;;;19.67;10.88;;;6.20;1.00;;;;;;5047105;28;20025;-90
2020/12/25 12:58:27;;;;;;;6.28;3.67;;;6.30;1.00;;;;;;5062200;28;20447;-90
2020/12/25 13:00:53;;;;;;;6.03;3.80;;;6.10;1.00;;;;;;5054969;28;20035;-90
2020/12/25 13:03:18;;;;;;;6.63;3.13;;;6.30;1.00;;;;;;5039339;28;20469;-92
2020/12/25 13:05:46;;;;;;;5.93;3.38;;;6.40;99.90;;;;;;5051953;28;20048;-90
2020/12/25 13:08:12;;;;;;;8.88;4.15;;;6.30;1.00;;;;;;5037375;28;20041;-90
2020/12/25 13:10:37;;;;;;;3.45;2.72;;;6.20;99.90;;;;;;5052380;28;20126;-89
2020/12/25 13:13:05;;;;;;;5.63;3.50;;;6.10;1.00;;;;;;5074460;28;20070;-92
2020/12/25 13:15:30;;;;;;;4.57;2.90;;;6.80;1.00;;;;;;5058432;28;20028;-89